createdAt,value
2022-08-19T00:00:08.767Z,0.109
2022-08-19T00:01:07.886Z,0.109
2022-08-19T00:02:07.269Z,0
2022-08-19T00:03:07.175Z,0.109
2022-08-19T00:04:07.330Z,0.340
2022-08-19T00:05:07.377Z,0.109
2022-08-19T00:06:07.494Z,0
2022-08-19T00:07:07.887Z,0.109
2022-08-19T00:08:07.159Z,0
2022-08-19T00:09:07.574Z,0.109
2022-08-19T00:10:07.888Z,0
2022-08-19T00:11:07.201Z,0.109
2022-08-19T00:12:07.871Z,0
2022-08-19T00:13:07.256Z,0
2022-08-19T00:14:07.237Z,0.340
2022-08-19T00:15:07.568Z,0
2022-08-19T00:16:07.554Z,0
2022-08-19T00:17:07.690Z,0.340
2022-08-19T00:18:07.733Z,0.340
2022-08-19T00:19:07.428Z,0.109
2022-08-19T00:20:07.586Z,0.109
2022-08-19T00:21:07.739Z,0.449
2022-08-19T00:22:07.695Z,0.109
2022-08-19T00:23:07.613Z,0
2022-08-19T00:24:07.694Z,0.109
2022-08-19T00:25:08.009Z,0.109
2022-08-19T00:26:07.465Z,0.449
2022-08-19T00:27:26.221Z,0.109
2022-08-19T00:28:07.048Z,0.109
2022-08-19T00:29:07.057Z,0.109
2022-08-19T00:30:07.212Z,0.340
2022-08-19T00:31:07.434Z,0.109
2022-08-19T00:32:07.640Z,0.219
2022-08-19T00:33:07.311Z,0.219
2022-08-19T00:34:07.277Z,0.370
2022-08-19T00:35:07.418Z,0.310
2022-08-19T00:36:07.242Z,0.340
2022-08-19T00:37:07.312Z,0.119
2022-08-19T00:38:07.447Z,0.200
2022-08-19T00:39:07.553Z,0.340
2022-08-19T00:40:07.491Z,0.239
2022-08-19T00:41:07.379Z,0.200
2022-08-19T00:42:07.273Z,0.239
2022-08-19T00:43:07.323Z,0.340
2022-08-19T00:44:07.555Z,0.409
2022-08-19T00:45:07.805Z,0.119
2022-08-19T00:46:07.789Z,0.200
2022-08-19T00:47:07.900Z,0.119
2022-08-19T00:48:14.748Z,0.449
2022-08-19T00:49:07.335Z,0.100
2022-08-19T00:50:07.245Z,0.370
2022-08-19T00:51:07.342Z,0.109
2022-08-19T00:52:07.424Z,0.219
2022-08-19T00:53:07.375Z,0.340
2022-08-19T00:54:07.598Z,0.109
2022-08-19T00:55:07.733Z,0.449
2022-08-19T00:56:07.428Z,0.340
2022-08-19T00:57:07.429Z,0.219
2022-08-19T00:58:07.418Z,0.219
2022-08-19T00:59:07.464Z,0.109
2022-08-19T01:00:08.429Z,0.449
2022-08-19T01:01:07.296Z,0.449
2022-08-19T01:02:07.208Z,0.219
2022-08-19T01:03:07.383Z,0.449
2022-08-19T01:04:07.406Z,0.449
2022-08-19T01:05:07.255Z,0.109
2022-08-19T01:06:07.282Z,0.680
2022-08-19T01:07:07.211Z,0.560
2022-08-19T01:08:07.357Z,0.449
2022-08-19T01:09:07.521Z,0.790
2022-08-19T01:10:07.482Z,0.449
2022-08-19T01:11:07.499Z,0.109
2022-08-19T01:12:07.501Z,0.340
2022-08-19T01:13:07.675Z,0.560
2022-08-19T01:14:07.704Z,0.109
2022-08-19T01:15:08.014Z,0
2022-08-19T01:16:07.282Z,0.340
2022-08-19T01:17:07.202Z,0.449
2022-08-19T01:18:07.381Z,0.109
2022-08-19T01:19:07.565Z,0.340
2022-08-19T01:20:07.950Z,0.219
2022-08-19T01:21:07.191Z,0.340
2022-08-19T01:22:14.263Z,0.449
2022-08-19T01:23:07.587Z,0.219
2022-08-19T01:24:07.839Z,0.219
2022-08-19T01:25:13.546Z,0.560
2022-08-19T01:26:07.482Z,0.109
2022-08-19T01:27:07.535Z,0.560
2022-08-19T01:28:11.093Z,0.219
2022-08-19T01:29:07.396Z,0.449
2022-08-19T01:30:07.976Z,0.109
2022-08-19T01:31:08.167Z,0.109
2022-08-19T01:32:07.394Z,0.449
2022-08-19T01:33:07.202Z,0.449
2022-08-19T01:34:07.150Z,0.449
2022-08-19T01:35:07.129Z,0.449
2022-08-19T01:36:07.366Z,0.219
2022-08-19T01:37:07.393Z,0.109
2022-08-19T01:38:07.528Z,0.219
2022-08-19T01:39:07.379Z,0.449
2022-08-19T01:40:09.404Z,0.680
2022-08-19T01:41:09.753Z,0.340
2022-08-19T01:42:07.352Z,0.449
2022-08-19T01:43:07.414Z,0.219
2022-08-19T01:44:18.025Z,0.560
2022-08-19T01:45:07.545Z,0.449
2022-08-19T01:46:07.606Z,0.449
2022-08-19T01:47:07.673Z,0.560
2022-08-19T01:48:07.805Z,0.109
2022-08-19T01:49:07.847Z,0.449
2022-08-19T01:50:07.946Z,0.219
2022-08-19T01:51:07.210Z,0.560
2022-08-19T01:52:07.254Z,0.340
2022-08-19T01:53:07.844Z,0.219
2022-08-19T01:54:07.610Z,0.560
2022-08-19T01:55:07.845Z,0.340
2022-08-19T01:56:07.042Z,0.449
2022-08-19T01:57:07.103Z,0.340
2022-08-19T01:58:07.183Z,0.340
2022-08-19T01:59:07.180Z,0.560
2022-08-19T02:00:08.065Z,0.340
2022-08-19T02:01:07.840Z,0.219
2022-08-19T02:02:07.302Z,0.680
2022-08-19T02:03:07.331Z,0.340
2022-08-19T02:04:07.303Z,0.449
2022-08-19T02:05:07.637Z,0.219
2022-08-19T02:06:07.045Z,0.449
2022-08-19T02:07:07.166Z,0.449
2022-08-19T02:08:07.173Z,0.340
2022-08-19T02:09:07.349Z,0.340
2022-08-19T02:10:09.409Z,0.610
2022-08-19T02:11:07.706Z,0.409
2022-08-19T02:12:07.041Z,0.560
2022-08-19T02:13:07.088Z,0.740
2022-08-19T02:14:07.704Z,0.409
2022-08-19T02:15:07.913Z,0.239
2022-08-19T02:16:07.028Z,0.620
2022-08-19T02:17:07.231Z,0.449
2022-08-19T02:18:07.329Z,0.490
2022-08-19T02:19:07.622Z,0.340
2022-08-19T02:20:07.616Z,0.449
2022-08-19T02:21:07.667Z,0.340
2022-08-19T02:22:07.605Z,0.409
2022-08-19T02:23:13.912Z,0.610
2022-08-19T02:24:07.247Z,0.560
2022-08-19T02:25:07.495Z,0.560
2022-08-19T02:26:07.545Z,0.449
2022-08-19T02:27:07.622Z,0.449
2022-08-19T02:28:07.604Z,0.109
2022-08-19T02:29:07.752Z,0.219
2022-08-19T02:30:08.245Z,0.560
2022-08-19T02:31:07.684Z,0.340
2022-08-19T02:32:07.723Z,0.899
2022-08-19T02:33:07.304Z,0.340
2022-08-19T02:34:07.290Z,0.109
2022-08-19T02:35:12.156Z,0.340
2022-08-19T02:36:07.297Z,0.340
2022-08-19T02:37:07.575Z,0.680
2022-08-19T02:38:07.666Z,0.219
2022-08-19T02:39:07.852Z,0.340
2022-08-19T02:40:12.403Z,0.449
2022-08-19T02:41:07.236Z,0.449
2022-08-19T02:42:07.798Z,0.109
2022-08-19T02:43:07.059Z,0.219
2022-08-19T02:44:30.163Z,0.560
2022-08-19T02:45:08.008Z,0.449
2022-08-19T02:46:07.465Z,0.560
2022-08-19T02:47:07.861Z,0.680
2022-08-19T02:48:12.706Z,0.449
2022-08-19T02:49:07.782Z,0.560
2022-08-19T02:50:07.768Z,0
2022-08-19T02:51:06.837Z,0.340
2022-08-19T02:52:07.165Z,0.340
2022-08-19T02:53:07.433Z,0.109
2022-08-19T02:54:07.166Z,0.219
2022-08-19T02:55:07.657Z,0.560
2022-08-19T02:56:07.815Z,0.449
2022-08-19T02:57:07.112Z,0.790
2022-08-19T02:58:07.323Z,0.449
2022-08-19T02:59:07.405Z,0.449
2022-08-19T03:00:08.169Z,0.560
2022-08-19T03:01:08.215Z,0.560
2022-08-19T03:02:07.674Z,0.219
2022-08-19T03:03:07.910Z,0.449
2022-08-19T03:04:07.112Z,0.560
2022-08-19T03:05:07.437Z,0.340
2022-08-19T03:06:07.502Z,0.340
2022-08-19T03:07:11.191Z,0.219
2022-08-19T03:08:07.467Z,0.109
2022-08-19T03:09:07.605Z,0.340
2022-08-19T03:10:07.699Z,0.560
2022-08-19T03:11:07.641Z,0.219
2022-08-19T03:12:07.790Z,0.680
2022-08-19T03:13:07.830Z,0.449
2022-08-19T03:14:07.055Z,0.219
2022-08-19T03:15:07.619Z,0.449
2022-08-19T03:16:07.584Z,0.449
2022-08-19T03:17:07.533Z,0.109
2022-08-19T03:18:07.544Z,0.340
2022-08-19T03:19:06.862Z,0.340
2022-08-19T03:20:07.254Z,0.219
2022-08-19T03:21:07.233Z,0.219
2022-08-19T03:22:06.948Z,0.449
2022-08-19T03:23:07.020Z,0.109
2022-08-19T03:24:07.070Z,0.340
2022-08-19T03:25:07.415Z,0.340
2022-08-19T03:26:15.859Z,0.560
2022-08-19T03:27:07.347Z,0.109
2022-08-19T03:28:07.852Z,0.340
2022-08-19T03:29:07.235Z,0.449
2022-08-19T03:30:07.641Z,0.219
2022-08-19T03:31:42.121Z,0.340
2022-08-19T03:32:08.000Z,0.340
2022-08-19T03:33:07.271Z,0.449
2022-08-19T03:34:08.147Z,0.340
2022-08-19T03:35:07.407Z,0.449
2022-08-19T03:36:07.591Z,0.560
2022-08-19T03:37:07.643Z,0.449
2022-08-19T03:38:07.609Z,0
2022-08-19T03:39:07.678Z,0
2022-08-19T03:40:07.913Z,0
2022-08-19T03:41:07.123Z,0
2022-08-19T03:42:38.463Z,0
2022-08-19T03:43:08.149Z,0
2022-08-19T03:44:07.244Z,0
2022-08-19T03:45:07.749Z,0
2022-08-19T03:46:07.238Z,0
2022-08-19T03:47:07.474Z,0
2022-08-19T03:48:08.031Z,0
2022-08-19T03:49:07.341Z,0
2022-08-19T03:50:07.209Z,0
2022-08-19T03:51:07.294Z,0
2022-08-19T03:52:07.382Z,0
2022-08-19T03:53:07.436Z,0
2022-08-19T03:54:07.542Z,0
2022-08-19T03:55:07.698Z,0.170
2022-08-19T03:56:07.094Z,0
2022-08-19T03:57:07.382Z,0.050
2022-08-19T03:58:07.346Z,0.310
2022-08-19T03:59:07.167Z,0.680
2022-08-19T04:00:13.805Z,0.769
2022-08-19T04:01:07.407Z,1.009
2022-08-19T04:02:07.459Z,0.899
2022-08-19T04:03:07.733Z,1.629
2022-08-19T04:04:07.860Z,2.640
2022-08-19T04:05:08.069Z,2.700
2022-08-19T04:06:07.225Z,3.670
2022-08-19T04:07:07.687Z,4.590
2022-08-19T04:08:10.727Z,5.670
2022-08-19T04:09:07.887Z,6.449
2022-08-19T04:10:07.177Z,8.189
2022-08-19T04:11:07.093Z,9.649
2022-08-19T04:12:07.407Z,11.55
2022-08-19T04:13:07.506Z,13.61
2022-08-19T04:14:07.334Z,16.20
2022-08-19T04:15:07.815Z,18.5
2022-08-19T04:16:07.199Z,21.70
2022-08-19T04:17:07.452Z,24.5
2022-08-19T04:18:06.983Z,28
2022-08-19T04:19:07.293Z,31.79
2022-08-19T04:20:07.580Z,35.79
2022-08-19T04:21:07.648Z,40
2022-08-19T04:22:07.612Z,44.90
2022-08-19T04:23:07.760Z,50
2022-08-19T04:24:08.077Z,54.79
2022-08-19T04:25:07.649Z,60.29
2022-08-19T04:26:07.379Z,66.69
2022-08-19T04:27:07.210Z,72.80
2022-08-19T04:28:07.312Z,79.90
2022-08-19T04:29:11.650Z,87.19
2022-08-19T04:30:08.115Z,96.69
2022-08-19T04:31:07.577Z,106
2022-08-19T04:32:08.550Z,118
2022-08-19T04:33:12.442Z,129
2022-08-19T04:34:07.174Z,141
2022-08-19T04:35:18.455Z,154
2022-08-19T04:36:07.159Z,170
2022-08-19T04:37:07.129Z,185
2022-08-19T04:38:07.070Z,201
2022-08-19T04:39:07.321Z,217
2022-08-19T04:40:07.572Z,235
2022-08-19T04:41:07.103Z,255
2022-08-19T04:42:07.208Z,275
2022-08-19T04:43:07.394Z,295
2022-08-19T04:44:07.484Z,317
2022-08-19T04:45:09.323Z,340
2022-08-19T04:46:07.681Z,365
2022-08-19T04:47:10.974Z,390
2022-08-19T04:48:27.206Z,417
2022-08-19T04:49:13.053Z,444
2022-08-19T04:50:07.962Z,472
2022-08-19T04:51:07.784Z,501
2022-08-19T04:52:07.015Z,525
2022-08-19T04:53:07.217Z,550
2022-08-19T04:54:07.229Z,580
2022-08-19T04:55:07.625Z,610
2022-08-19T04:56:07.719Z,635
2022-08-19T04:57:08.221Z,647
2022-08-19T04:58:07.403Z,665
2022-08-19T04:59:07.638Z,700
2022-08-19T05:00:08.460Z,740
2022-08-19T05:01:07.218Z,780
2022-08-19T05:02:07.675Z,820
2022-08-19T05:03:07.928Z,860
2022-08-19T05:04:07.220Z,900
2022-08-19T05:05:07.352Z,950
2022-08-19T05:06:07.482Z,1000
2022-08-19T05:07:07.529Z,1050
2022-08-19T05:08:07.760Z,1081
2022-08-19T05:09:07.216Z,1104
2022-08-19T05:10:07.501Z,1129
2022-08-19T05:11:07.621Z,1157
2022-08-19T05:12:07.106Z,1186
2022-08-19T05:13:07.289Z,1210
2022-08-19T05:14:07.265Z,1250
2022-08-19T05:15:07.455Z,1281
2022-08-19T05:16:07.051Z,1308
2022-08-19T05:17:26.537Z,1331
2022-08-19T05:18:07.661Z,1356
2022-08-19T05:19:06.982Z,1379
2022-08-19T05:20:07.304Z,1399
2022-08-19T05:21:07.269Z,1420
2022-08-19T05:22:07.373Z,1442
2022-08-19T05:23:10.815Z,1468
2022-08-19T05:24:07.070Z,1495
2022-08-19T05:25:13.059Z,1521
2022-08-19T05:26:07.558Z,1548
2022-08-19T05:27:07.300Z,1578
2022-08-19T05:28:07.450Z,1610
2022-08-19T05:29:07.633Z,1640
2022-08-19T05:30:07.619Z,1678
2022-08-19T05:31:07.117Z,1706
2022-08-19T05:32:07.507Z,1728
2022-08-19T05:33:07.905Z,1739.
2022-08-19T05:34:07.264Z,1742.
2022-08-19T05:35:07.424Z,1740.
2022-08-19T05:36:07.953Z,1757
2022-08-19T05:37:07.470Z,1790
2022-08-19T05:38:07.967Z,1820
2022-08-19T05:39:07.473Z,1860
2022-08-19T05:40:07.573Z,1900
2022-08-19T05:41:07.973Z,1932
2022-08-19T05:42:07.363Z,1960
2022-08-19T05:43:07.640Z,1999
2022-08-19T05:44:07.890Z,2023
2022-08-19T05:45:08.965Z,2052
2022-08-19T05:46:07.506Z,2077
2022-08-19T05:47:07.907Z,2120
2022-08-19T05:48:07.283Z,2180
2022-08-19T05:49:07.510Z,2210
2022-08-19T05:50:07.784Z,2260
2022-08-19T05:51:07.233Z,2310
2022-08-19T05:52:07.498Z,2350
2022-08-19T05:53:07.429Z,2410
2022-08-19T05:54:07.546Z,2470
2022-08-19T05:55:08.412Z,2540
2022-08-19T05:56:07.597Z,2610
2022-08-19T05:57:07.601Z,2700
2022-08-19T05:58:07.112Z,2770
2022-08-19T05:59:07.307Z,2850
2022-08-19T06:00:08.406Z,2900
2022-08-19T06:01:07.216Z,3100
2022-08-19T06:02:07.785Z,3300
2022-08-19T06:03:11.847Z,3400
2022-08-19T06:04:07.456Z,3500
2022-08-19T06:05:07.988Z,3600
2022-08-19T06:06:07.466Z,3700
2022-08-19T06:07:11.949Z,3890
2022-08-19T06:08:07.594Z,3970
2022-08-19T06:09:07.820Z,4022
2022-08-19T06:10:08.041Z,4050
2022-08-19T06:11:07.735Z,4120
2022-08-19T06:12:07.526Z,4210
2022-08-19T06:13:07.919Z,4290
2022-08-19T06:14:07.350Z,4360
2022-08-19T06:15:08.197Z,4430
2022-08-19T06:16:07.672Z,4490
2022-08-19T06:17:07.686Z,4550
2022-08-19T06:18:07.263Z,4630
2022-08-19T06:19:07.645Z,4730
2022-08-19T06:20:08.056Z,4820
2022-08-19T06:21:07.373Z,4900
2022-08-19T06:22:07.529Z,5000
2022-08-19T06:23:07.735Z,5090
2022-08-19T06:24:07.114Z,5170
2022-08-19T06:25:07.446Z,5260
2022-08-19T06:26:07.687Z,5300
2022-08-19T06:27:07.464Z,5460
2022-08-19T06:28:15.781Z,5500
2022-08-19T06:29:07.240Z,5600
2022-08-19T06:30:08.128Z,5770
2022-08-19T06:31:07.619Z,5840
2022-08-19T06:32:07.258Z,5920
2022-08-19T06:33:07.980Z,6000
2022-08-19T06:34:07.259Z,6090
2022-08-19T06:35:07.512Z,6100
2022-08-19T06:36:07.695Z,6290
2022-08-19T06:37:07.196Z,6350
2022-08-19T06:38:07.459Z,6410
2022-08-19T06:39:07.583Z,6470
2022-08-19T06:40:08.109Z,6550
2022-08-19T06:41:08.149Z,6620
2022-08-19T06:42:07.637Z,6700
2022-08-19T06:43:08.627Z,6800
2022-08-19T06:44:07.694Z,6900
2022-08-19T06:45:09.510Z,7000
2022-08-19T06:46:07.363Z,7100
2022-08-19T06:47:14.422Z,7300
2022-08-19T06:48:07.415Z,7400
2022-08-19T06:49:07.863Z,7600
2022-08-19T06:50:07.703Z,7700
2022-08-19T06:51:08.757Z,7900
2022-08-19T06:52:07.324Z,8000
2022-08-19T06:53:07.472Z,8108
2022-08-19T06:54:07.641Z,8110
2022-08-19T06:55:07.597Z,8200
2022-08-19T06:56:07.793Z,8400
2022-08-19T06:57:07.171Z,8600
2022-08-19T06:58:07.412Z,8800
2022-08-19T06:59:07.381Z,9100
2022-08-19T07:00:12.263Z,9300
2022-08-19T07:01:09.146Z,9500
2022-08-19T07:02:07.684Z,9600
2022-08-19T07:03:08.775Z,9710
2022-08-19T07:04:07.495Z,9780
2022-08-19T07:05:07.930Z,9815
2022-08-19T07:06:09.878Z,9800
2022-08-19T07:07:20.203Z,9700
2022-08-19T07:08:07.745Z,9610
2022-08-19T07:09:07.969Z,9558
2022-08-19T07:10:07.849Z,9500
2022-08-19T07:11:09.433Z,9440
2022-08-19T07:12:07.392Z,9520
2022-08-19T07:13:07.275Z,9600
2022-08-19T07:14:07.576Z,9700
2022-08-19T07:15:07.427Z,9700
2022-08-19T07:16:07.289Z,9600
2022-08-19T07:17:07.219Z,9600
2022-08-19T07:18:07.561Z,9400
2022-08-19T07:19:11.809Z,9300
2022-08-19T07:20:09.623Z,9000
2022-08-19T07:21:09.498Z,10000
2022-08-19T07:22:07.684Z,9000
2022-08-19T07:23:07.421Z,9000
2022-08-19T07:24:07.611Z,9300
2022-08-19T07:25:07.229Z,9500
2022-08-19T07:26:07.473Z,9000
2022-08-19T07:27:15.276Z,10000
2022-08-19T07:28:07.548Z,10329
2022-08-19T07:29:07.817Z,10290
2022-08-19T07:30:07.426Z,10100
2022-08-19T07:31:07.391Z,10030
2022-08-19T07:32:07.703Z,10010
2022-08-19T07:33:07.160Z,9980
2022-08-19T07:34:07.249Z,9920
2022-08-19T07:35:07.510Z,9700
2022-08-19T07:36:08.047Z,9600
2022-08-19T07:37:07.379Z,9600
2022-08-19T07:38:07.659Z,9900
2022-08-19T07:39:08.042Z,10000
2022-08-19T07:40:07.412Z,10000
2022-08-19T07:41:07.100Z,11000
2022-08-19T07:42:07.465Z,11300
2022-08-19T07:43:07.895Z,11600
2022-08-19T07:44:07.731Z,11800
2022-08-19T07:45:08.183Z,11700
2022-08-19T07:46:07.237Z,11500
2022-08-19T07:47:07.648Z,11330
2022-08-19T07:48:07.617Z,11400
2022-08-19T07:49:07.116Z,11000
2022-08-19T07:50:07.729Z,12000
2022-08-19T07:51:07.294Z,10000
2022-08-19T07:52:07.307Z,0
2022-08-19T07:53:07.850Z,10000
2022-08-19T07:54:07.417Z,20000
2022-08-19T07:55:07.690Z,20000
2022-08-19T07:56:07.536Z,20000
2022-08-19T07:57:07.191Z,20000
2022-08-19T07:58:07.484Z,0
2022-08-19T07:59:07.263Z,0
2022-08-19T08:00:08.522Z,0
2022-08-19T08:01:07.364Z,20000
2022-08-19T08:02:08.064Z,0
2022-08-19T08:03:07.787Z,16000
2022-08-19T08:04:07.286Z,10000
2022-08-19T08:05:07.585Z,20000
2022-08-19T08:06:07.864Z,20000
2022-08-19T08:07:07.466Z,10000
2022-08-19T08:08:07.760Z,10000
2022-08-19T08:09:07.885Z,0
2022-08-19T08:10:13.997Z,23000
2022-08-19T08:11:08.385Z,0
2022-08-19T08:12:32.449Z,20000
2022-08-19T08:13:09.161Z,19000
2022-08-19T08:14:07.872Z,19000
2022-08-19T08:15:08.306Z,19000
2022-08-19T08:16:10.429Z,20000
2022-08-19T08:17:10.965Z,0
2022-08-19T08:18:07.336Z,0
2022-08-19T08:19:18.208Z,30000
2022-08-19T08:20:07.401Z,20000
2022-08-19T08:21:07.420Z,27000
2022-08-19T08:22:07.833Z,28000
2022-08-19T08:23:07.466Z,20000
2022-08-19T08:24:08.150Z,20000
2022-08-19T08:25:07.487Z,25000
2022-08-19T08:26:07.289Z,20000
2022-08-19T08:27:11.300Z,0
2022-08-19T08:28:07.128Z,30000
2022-08-19T08:29:11.481Z,32000
2022-08-19T08:30:07.305Z,30000
2022-08-19T08:31:09.567Z,0
2022-08-19T08:32:14.264Z,20000
2022-08-19T08:33:07.770Z,20000
2022-08-19T08:34:07.917Z,0
2022-08-19T08:35:07.226Z,0
2022-08-19T08:36:07.872Z,30000
2022-08-19T08:37:07.470Z,31000
2022-08-19T08:38:07.694Z,30000
2022-08-19T08:39:07.323Z,0
2022-08-19T08:40:11.272Z,0
2022-08-19T08:41:07.615Z,30000
2022-08-19T08:42:10.416Z,33000
2022-08-19T08:43:11.209Z,30000
2022-08-19T08:44:07.746Z,30000
2022-08-19T08:45:07.802Z,30000
2022-08-19T08:46:07.905Z,30000
2022-08-19T08:47:07.907Z,30000
2022-08-19T08:48:07.628Z,30000
2022-08-19T08:49:07.413Z,20000
2022-08-19T08:50:07.412Z,20000
2022-08-19T08:51:07.645Z,30000
2022-08-19T08:52:07.259Z,30000
2022-08-19T08:53:07.838Z,33000
2022-08-19T08:54:07.452Z,30000
2022-08-19T08:55:10.270Z,34000
2022-08-19T08:56:07.422Z,30000
2022-08-19T08:57:07.419Z,30000
2022-08-19T08:58:07.462Z,30000
2022-08-19T08:59:07.619Z,31000
2022-08-19T09:01:07.685Z,35000
2022-08-19T09:03:07.489Z,30000
2022-08-19T09:04:07.190Z,0
2022-08-19T09:05:07.604Z,0
2022-08-19T09:06:12.012Z,30000
2022-08-19T09:07:18.258Z,30000
2022-08-19T09:08:07.273Z,30000
2022-08-19T09:09:11.764Z,30000
2022-08-19T09:10:07.306Z,0
2022-08-19T09:11:07.769Z,0
2022-08-19T09:12:07.743Z,20000
2022-08-19T09:13:09.147Z,20000
2022-08-19T09:14:07.379Z,0
2022-08-19T09:15:07.578Z,0
2022-08-19T09:16:07.326Z,0
2022-08-19T09:17:07.651Z,0
2022-08-19T09:18:08.177Z,30000
2022-08-19T09:19:07.630Z,30000
2022-08-19T09:20:09.149Z,0
2022-08-19T09:21:12.316Z,0
2022-08-19T09:22:07.280Z,29000
2022-08-19T09:23:07.734Z,28000
2022-08-19T09:24:07.537Z,0
2022-08-19T09:25:07.994Z,30000
2022-08-19T09:26:07.362Z,30000
2022-08-19T09:27:18.303Z,0
2022-08-19T09:28:22.686Z,0
2022-08-19T09:29:07.415Z,30000
2022-08-19T09:30:07.960Z,35000
2022-08-19T09:31:07.682Z,30000
2022-08-19T09:32:07.191Z,30000
2022-08-19T09:33:07.135Z,30000
2022-08-19T09:34:07.450Z,0
2022-08-19T09:35:08.634Z,34000
2022-08-19T09:36:08.570Z,30000
2022-08-19T09:37:07.691Z,30000
2022-08-19T09:38:07.393Z,30000
2022-08-19T09:39:16.089Z,0
2022-08-19T09:40:07.948Z,30000
2022-08-19T09:41:07.369Z,0
2022-08-19T09:42:16.223Z,0
2022-08-19T09:43:11.487Z,0
2022-08-19T09:44:07.439Z,24000
2022-08-19T09:45:10.400Z,0
2022-08-19T09:46:07.345Z,30000
2022-08-19T09:47:07.632Z,30000
2022-08-19T09:48:07.287Z,0
2022-08-19T09:49:07.621Z,20000
2022-08-19T09:50:07.728Z,20000
2022-08-19T09:51:07.346Z,22000
2022-08-19T09:52:07.617Z,20000
2022-08-19T09:53:07.787Z,0
2022-08-19T09:54:07.164Z,29000
2022-08-19T09:55:07.602Z,29000
2022-08-19T09:56:07.375Z,20000
2022-08-19T09:57:07.869Z,26000
2022-08-19T09:58:07.365Z,20000
2022-08-19T09:59:07.771Z,30000
2022-08-19T10:00:07.947Z,31000
2022-08-19T10:01:07.921Z,30000
2022-08-19T10:02:10.584Z,30000
2022-08-19T10:03:07.391Z,0
2022-08-19T10:04:14.720Z,20000
2022-08-19T10:05:07.517Z,28000
2022-08-19T10:06:15.131Z,0
2022-08-19T10:07:07.462Z,0
2022-08-19T10:08:07.663Z,30000
2022-08-19T10:09:08.980Z,0
2022-08-19T10:10:07.876Z,0
2022-08-19T10:11:28.481Z,0
2022-08-19T10:12:11.251Z,0
2022-08-19T10:13:07.534Z,0
2022-08-19T10:14:07.537Z,20000
2022-08-19T10:15:08.080Z,20000
2022-08-19T10:16:07.602Z,20000
2022-08-19T10:17:19.931Z,0
2022-08-19T10:18:07.553Z,0
2022-08-19T10:19:08.040Z,0
2022-08-19T10:20:07.808Z,15000
2022-08-19T10:21:07.644Z,0
2022-08-19T10:22:10.176Z,0
2022-08-19T10:23:07.858Z,20000
2022-08-19T10:24:09.454Z,20000
2022-08-19T10:25:07.341Z,20000
2022-08-19T10:26:07.407Z,0
2022-08-19T10:27:07.749Z,0
2022-08-19T10:28:10.756Z,10000
2022-08-19T10:29:09.463Z,0
2022-08-19T10:30:09.896Z,10000
2022-08-19T10:31:07.681Z,0
2022-08-19T10:32:09.405Z,0
2022-08-19T10:33:11.044Z,0
2022-08-19T10:34:10.000Z,0
2022-08-19T10:35:07.791Z,10000
2022-08-19T10:36:07.407Z,11000
2022-08-19T10:37:10.158Z,10000
2022-08-19T10:38:07.440Z,0
2022-08-19T10:39:08.120Z,0
2022-08-19T10:40:08.025Z,13000
2022-08-19T10:41:07.896Z,10000
2022-08-19T10:42:07.265Z,10000
2022-08-19T10:43:07.745Z,18000
2022-08-19T10:44:07.425Z,10000
2022-08-19T10:45:08.025Z,10000
2022-08-19T10:46:14.238Z,10000
2022-08-19T10:47:17.289Z,10000
2022-08-19T10:48:07.784Z,0
2022-08-19T10:49:07.752Z,20000
2022-08-19T10:50:07.880Z,22000
2022-08-19T10:51:07.855Z,0
2022-08-19T10:52:07.660Z,10000
2022-08-19T10:53:08.042Z,0
2022-08-19T10:54:12.383Z,13000
2022-08-19T10:55:08.515Z,14000
2022-08-19T10:56:07.677Z,13000
2022-08-19T10:57:07.244Z,0
2022-08-19T10:58:07.988Z,0
2022-08-19T10:59:07.339Z,10000
2022-08-19T11:00:08.580Z,10000
2022-08-19T11:01:08.018Z,0
2022-08-19T11:02:07.699Z,0
2022-08-19T11:03:07.360Z,0
2022-08-19T11:04:07.650Z,0
2022-08-19T11:05:12.796Z,0
2022-08-19T11:06:07.930Z,16000
2022-08-19T11:07:07.561Z,0
2022-08-19T11:08:22.902Z,0
2022-08-19T11:09:07.512Z,10000
2022-08-19T11:10:11.493Z,11000
2022-08-19T11:11:07.903Z,11000
2022-08-19T11:12:07.587Z,10000
2022-08-19T11:13:08.042Z,10000
2022-08-19T11:14:07.650Z,0
2022-08-19T11:15:08.403Z,0
2022-08-19T11:16:07.923Z,0
2022-08-19T11:17:07.995Z,0
2022-08-19T11:18:07.677Z,10000
2022-08-19T11:19:07.077Z,0
2022-08-19T11:20:07.798Z,0
2022-08-19T11:21:07.283Z,0
2022-08-19T11:22:07.689Z,10000
2022-08-19T11:23:07.633Z,13000
2022-08-19T11:24:07.521Z,0
2022-08-19T11:25:07.266Z,0
2022-08-19T11:26:07.915Z,0
2022-08-19T11:27:07.833Z,0
2022-08-19T11:28:07.364Z,15000
2022-08-19T11:29:07.646Z,0
2022-08-19T11:30:07.094Z,0
2022-08-19T11:31:07.084Z,0
2022-08-19T11:32:07.737Z,0
2022-08-19T11:33:07.505Z,0
2022-08-19T11:34:07.469Z,0
2022-08-19T11:35:08.033Z,0
2022-08-19T11:36:07.546Z,0
2022-08-19T11:37:07.251Z,0
2022-08-19T11:38:09.884Z,0
2022-08-19T11:39:07.772Z,0
2022-08-19T11:40:07.676Z,0
2022-08-19T11:41:07.892Z,0
2022-08-19T11:42:07.372Z,0
2022-08-19T11:43:07.973Z,10000
2022-08-19T11:44:07.427Z,0
2022-08-19T11:45:08.107Z,23000
2022-08-19T11:46:07.604Z,20000
2022-08-19T11:47:08.833Z,24000
2022-08-19T11:48:07.481Z,20000
2022-08-19T11:49:10.733Z,20000
2022-08-19T11:50:08.060Z,0
2022-08-19T11:51:07.796Z,0
2022-08-19T11:52:07.432Z,10000
2022-08-19T11:53:07.985Z,16000
2022-08-19T11:54:08.481Z,0
2022-08-19T11:55:08.277Z,0
2022-08-19T11:56:07.977Z,0
2022-08-19T11:57:07.646Z,0
2022-08-19T11:58:07.050Z,0
2022-08-19T11:59:08.826Z,20000
2022-08-19T12:00:21.886Z,0
2022-08-19T12:01:07.499Z,0
2022-08-19T12:02:07.769Z,0
2022-08-19T12:03:07.319Z,0
2022-08-19T12:04:07.568Z,0
2022-08-19T12:05:11.971Z,0
2022-08-19T12:06:07.623Z,10000
2022-08-19T12:07:07.370Z,10000
2022-08-19T12:08:07.775Z,0
2022-08-19T12:09:07.684Z,10000
2022-08-19T12:10:07.366Z,10000
2022-08-19T12:11:07.695Z,10000
2022-08-19T12:12:07.287Z,17000
2022-08-19T12:13:08.340Z,10000
2022-08-19T12:14:07.913Z,0
2022-08-19T12:15:08.439Z,20000
2022-08-19T12:16:07.534Z,0
2022-08-19T12:17:07.619Z,0
2022-08-19T12:18:07.502Z,0
2022-08-19T12:19:07.392Z,0
2022-08-19T12:20:07.598Z,10000
2022-08-19T12:21:07.849Z,10000
2022-08-19T12:22:07.387Z,10000
2022-08-19T12:23:07.983Z,0
2022-08-19T12:24:07.541Z,10000
2022-08-19T12:25:08.110Z,10000
2022-08-19T12:26:07.660Z,0
2022-08-19T12:27:12.485Z,0
2022-08-19T12:28:07.421Z,0
2022-08-19T12:29:07.841Z,20000
2022-08-19T12:30:07.869Z,20000
2022-08-19T12:31:07.614Z,20000
2022-08-19T12:32:07.453Z,20000
2022-08-19T12:33:07.420Z,20000
2022-08-19T12:34:08.231Z,20000
2022-08-19T12:35:07.348Z,0
2022-08-19T12:36:08.281Z,0
2022-08-19T12:37:08.094Z,0
2022-08-19T12:38:07.695Z,0
2022-08-19T12:39:07.304Z,20000
2022-08-19T12:40:07.395Z,0
2022-08-19T12:41:07.434Z,19000
2022-08-19T12:42:07.185Z,10000
2022-08-19T12:43:07.830Z,0
2022-08-19T12:44:07.447Z,20000
2022-08-19T12:45:07.838Z,0
2022-08-19T12:46:07.116Z,0
2022-08-19T12:47:08.011Z,20000
2022-08-19T12:48:32.966Z,10000
2022-08-19T12:49:15.329Z,0
2022-08-19T12:50:07.635Z,0
2022-08-19T12:51:07.286Z,0
2022-08-19T12:52:07.722Z,20000
2022-08-19T12:53:07.332Z,24000
2022-08-19T12:54:07.627Z,20000
2022-08-19T12:55:07.325Z,0
2022-08-19T12:56:12.212Z,0
2022-08-19T12:57:07.591Z,0
2022-08-19T12:58:07.939Z,20000
2022-08-19T12:59:07.614Z,20000
2022-08-19T13:00:08.810Z,20000
2022-08-19T13:01:07.486Z,0
2022-08-19T13:02:07.481Z,30000
2022-08-19T13:03:07.854Z,0
2022-08-19T13:04:07.525Z,0
2022-08-19T13:05:07.398Z,20000
2022-08-19T13:06:07.814Z,20000
2022-08-19T13:07:07.522Z,0
2022-08-19T13:08:08.198Z,0
2022-08-19T13:09:07.689Z,20000
2022-08-19T13:10:07.829Z,30000
2022-08-19T13:11:07.423Z,30000
2022-08-19T13:12:08.194Z,0
2022-08-19T13:13:07.972Z,30000
2022-08-19T13:14:07.648Z,0
2022-08-19T13:15:11.132Z,30000
2022-08-19T13:16:07.494Z,20000
2022-08-19T13:17:07.954Z,20000
2022-08-19T13:18:08.266Z,20000
2022-08-19T13:19:07.615Z,20000
2022-08-19T13:20:08.072Z,30000
2022-08-19T13:21:08.331Z,30000
2022-08-19T13:22:14.959Z,30000
2022-08-19T13:23:08.061Z,0